Latest Weather Observations for Canberra

IDN60901

Issued at 8:11 am EDT Sunday 22 October 2017 (issued every 10 minutes, with the page automatically refreshed every 10 minutes)

About weather observations | Map of Canberra area stations | Latest observations for Canberra area | Other Formats
Station Details ID: 070351 Name: CANBERRA AIRPORT Lat: -35.31 Lon: 149.20 Height: 577.05 m
Data from the previous 72 hours. | See also: Recent months at Canberra
Date/Time
EDT
Temp
°C
App
Temp
°C
Dew
Point
°C
Rel
Hum
%
Delta-T
°C
Wind Press
QNH
hPa
Press
MSL
hPa
Rain since
9am
mm
Dir  Spd
km/h
Gust
km/h
Spd
kts
Gust
kts
22/08:00am 11.0 8.3 7.5 79 1.7 SSE 11 13 6 7 1015.9 1015.3 0.0
22/07:30am 10.1 7.7 7.2 82 1.4 SSE 9 13 5 7 1015.6 1014.9 0.0
22/07:00am 10.0 7.9 6.5 79 1.7 SE 7 9 4 5 1015.2 1014.5 0.0
22/06:30am 10.3 7.8 6.6 78 1.8 SE 9 11 5 6 1015.2 1014.5 0.0
22/06:00am 10.3 8.2 6.8 79 1.7 E 7 7 4 4 1014.9 1014.2 0.0
22/05:30am 10.3 8.2 6.6 78 1.8 ESE 7 9 4 5 1015.0 1014.3 0.0
22/05:00am 10.3 8.2 6.5 77 1.8 E 7 9 4 5 1015.0 1014.3 0.0
22/04:30am 10.3 8.2 6.6 78 1.8 E 7 9 4 5 1015.2 1014.5 0.0
22/04:00am 10.3 8.7 6.5 77 1.8 SE 4 7 2 4 1015.4 1014.7 0.0
22/03:30am 10.3 7.8 6.5 77 1.8 ESE 9 9 5 5 1015.6 1014.9 0.0
22/03:00am 10.3 7.4 6.5 77 1.8 ESE 11 13 6 7 1015.9 1015.3 0.0
22/02:30am 10.3 8.2 6.6 78 1.8 ESE 7 11 4 6 1016.3 1015.6 0.0
22/02:00am 10.1 8.1 6.4 78 1.8 SE 6 9 3 5 1016.5 1015.8 0.0
22/01:35am 10.0 7.8 6.3 78 1.8 SSE 7 9 4 5 1016.8 1016.1 0.0
22/01:30am 9.9 7.7 6.3 78 1.7 SSE 7 9 4 5 1016.9 1016.2 0.0
22/01:00am 9.9 7.3 6.1 77 1.8 SSE 9 15 5 8 1017.2 1016.6 0.0
22/12:30am 9.9 6.2 6.4 79 1.7 ESE 15 24 8 13 1017.4 1016.8 0.0
22/12:00am 9.7 6.3 6.1 78 1.7 ESE 13 19 7 10 1017.5 1016.9 0.0
 
Date/Time
EDT
Temp
°C
App
Temp
°C
Dew
Point
°C
Rel
Hum
%
Delta-T
°C
Wind Press
QNH
hPa
Press
MSL
hPa
Rain since
9am
mm
Dir  Spd
km/h
Gust
km/h
Spd
kts
Gust
kts
21/11:30pm 9.9 7.3 6.1 77 1.8 ENE 9 13 5 7 1017.5 1016.9 0.0
21/11:00pm 10.4 8.2 6.0 74 2.1 NE 7 11 4 6 1017.4 1016.8 0.0
21/10:30pm 11.1 7.0 6.0 71 2.5 ENE 17 26 9 14 1017.3 1016.7 0.0
21/10:00pm 11.9 6.8 6.2 68 2.8 ENE 22 30 12 16 1017.2 1016.6 0.0
21/09:30pm 13.3 8.3 6.6 64 3.3 ENE 22 28 12 15 1017.1 1016.4 0.0
21/09:00pm 15.2 11.8 7.5 60 3.9 NNE 15 17 8 9 1016.9 1016.2 0.0
21/08:30pm 14.9 11.5 7.5 61 3.8 NNE 15 19 8 10 1016.6 1015.9 0.0
21/08:00pm 14.3 11.2 7.1 62 3.6 N 13 17 7 9 1016.6 1015.9 0.0
21/07:30pm 15.5 12.0 7.3 58 4.2 N 15 17 8 9 1016.4 1015.7 0.0
21/07:00pm 16.4 12.9 7.3 55 4.7 NNW 15 19 8 10 1016.4 1015.7 0.0
21/06:30pm 17.5 13.6 7.3 51 5.3 NW 17 20 9 11 1016.5 1015.8 0.0
21/06:00pm 18.2 14.3 7.0 48 5.8 NNW 17 24 9 13 1016.5 1015.8 0.0
21/05:30pm 18.9 14.8 6.1 43 6.5 NNW 17 24 9 13 1016.6 1015.9 0.0
21/05:00pm 18.7 15.0 6.2 44 6.4 NW 15 24 8 13 1016.9 1016.2 0.0
21/04:30pm 19.3 15.2 4.6 38 7.3 NNW 15 24 8 13 1017.1 1016.4 0.0
21/04:00pm 19.5 16.5 4.0 36 7.6 NW 9 17 5 9 1017.4 1016.8 0.0
21/03:30pm 18.8 14.3 2.2 33 7.8 NNW 15 22 8 12 1018.0 1017.3 0.0
21/03:00pm 18.8 15.0 1.8 32 7.9 N 11 19 6 10 1018.3 1017.6 0.0
21/02:30pm 17.9 13.6 1.0 32 7.7 N 13 24 7 13 1018.9 1018.3 0.0
21/02:00pm 17.5 13.7 1.9 35 7.2 WNW 11 19 6 10 1019.4 1018.8 0.0
21/01:30pm 18.0 13.9 2.3 35 7.4 WNW 13 19 7 10 1019.9 1019.2 0.0
21/01:00pm 16.7 13.1 2.7 39 6.5 NW 11 22 6 12 1020.4 1019.8 0.0
21/12:30pm 15.8 13.0 3.3 43 5.9 SSW 7 11 4 6 1020.8 1020.2 0.0
21/12:00pm 14.8 11.3 3.6 47 5.3 N 11 19 6 10 1021.4 1020.8 0.0
21/11:30am 14.0 10.6 2.0 44 5.4 NW 9 13 5 7 1021.9 1021.3 0.0
21/11:00am 13.5 9.3 1.8 45 5.2 NNW 13 20 7 11 1022.1 1021.5 0.0
21/10:30am 12.7 9.4 2.3 49 4.7 W 9 13 5 7 1022.4 1021.8 0.0
21/10:00am 11.6 9.0 3.4 57 3.7 SW 6 11 3 6 1022.6 1022.0 0.0
21/09:30am 10.7 7.6 3.5 61 3.3 SSE 9 15 5 8 1022.8 1022.2 0.0
21/09:00am 9.2 5.4 1.9 60 3.1 ESE 11 15 6 8 1023.0 1022.4 0.2
21/08:30am 8.4 4.3 2.2 65 2.7 SE 13 17 7 9 1023.1 1022.5 0.2
21/08:00am 7.0 3.3 2.3 72 2.0 ESE 11 15 6 8 1023.3 1022.8 0.2
21/07:30am 6.1 2.8 2.7 79 1.5 ESE 9 13 5 7 1023.4 1022.9 0.2
21/07:00am 3.9 1.0 2.7 92 0.5 SE 7 11 4 6 1023.1 1022.5 0.2
21/06:30am 2.4 -1.1 1.5 94 0.4 ESE 9 11 5 6 1022.9 1022.3 0.2
21/06:00am 3.6 1.5 2.0 89 0.7 ESE 2 6 1 3 1023.1 1022.5 0.2
21/05:30am 3.4 0.9 1.6 88 0.7 E 4 7 2 4 1023.0 1022.4 0.2
21/05:00am 2.7 -0.4 1.1 89 0.6 ESE 7 11 4 6 1023.0 1022.4 0.2
21/04:30am 4.2 0.8 1.7 84 1.0 ESE 9 11 5 6 1023.1 1022.5 0.2
21/04:00am 5.2 1.1 2.0 80 1.3 SE 13 17 7 9 1023.3 1022.8 0.2
21/03:30am 5.6 1.5 2.3 79 1.4 ESE 13 13 7 7 1023.6 1023.0 0.2
21/03:00am 6.4 2.7 2.1 74 1.8 SE 11 15 6 8 1023.8 1023.2 0.2
21/02:30am 6.0 1.9 2.3 77 1.6 SSE 13 15 7 8 1024.2 1023.6 0.2
21/02:00am 6.6 2.6 2.7 76 1.7 SSE 13 15 7 8 1024.5 1023.9 0.2
21/01:30am 9.2 5.2 3.0 65 2.7 SSE 13 17 7 9 1024.7 1024.2 0.2
21/01:00am 10.0 5.5 4.2 67 2.6 S 17 20 9 11 1024.8 1024.3 0.2
21/12:30am 10.6 7.7 4.5 66 2.8 ESE 9 13 5 7 1024.9 1024.4 0.2
21/12:00am 11.0 8.1 6.4 73 2.2 ESE 11 15 6 8 1025.0 1024.5 0.2
 
Date/Time
EDT
Temp
°C
App
Temp
°C
Dew
Point
°C
Rel
Hum
%
Delta-T
°C
Wind Press
QNH
hPa
Press
MSL
hPa
Rain since
9am
mm
Dir  Spd
km/h
Gust
km/h
Spd
kts
Gust
kts
20/11:30pm 11.5 8.7 5.2 65 3.0 SE 9 13 5 7 1025.0 1024.5 0.2
20/11:00pm 11.5 8.5 5.8 68 2.7 SE 11 17 6 9 1024.8 1024.3 0.2
20/10:30pm 11.6 8.6 6.1 69 2.7 SE 11 17 6 9 1025.0 1024.5 0.2
20/10:00pm 11.6 8.3 6.5 71 2.5 SSE 13 19 7 10 1025.0 1024.5 0.2
20/09:30pm 11.6 8.5 7.3 75 2.1 S 13 17 7 9 1025.0 1024.5 0.2
20/09:04pm 11.6 7.7 7.3 75 2.1 S 17 24 9 13 1024.9 1024.4 0.2
20/09:00pm 11.7 7.8 7.2 74 2.2 S 17 24 9 13 1024.9 1024.4 0.2
20/08:51pm 11.8 8.4 7.5 75 2.1 SSE 15 22 8 12 1024.8 1024.3 0.2
20/08:30pm 12.0 10.4 8.7 80 1.7 SE 7 7 4 4 1024.5 1023.9 0.2
20/08:00pm 12.1 9.7 8.8 80 1.7 SSE 11 13 6 7 1024.3 1023.7 0.2
20/07:30pm 12.1 9.7 8.8 80 1.7 SE 11 17 6 9 1023.7 1023.1 0.2
20/07:00pm 12.2 9.5 9.0 81 1.6 SE 13 17 7 9 1023.3 1022.8 0.2
20/06:30pm 12.1 10.0 11.0 93 0.6 SE 13 20 7 11 1023.0 1022.4 0.2
20/06:00pm 12.2 11.0 11.7 97 0.3 ENE 9 11 5 6 1022.6 1022.0 0.2
20/05:30pm 12.1 11.2 11.3 95 0.4 ESE 7 11 4 6 1022.3 1021.7 0.2
20/05:08pm 12.2 10.4 10.8 91 0.8 ESE 11 13 6 7 1022.0 1021.4 0.0
20/05:00pm 12.9 10.6 10.6 86 1.2 ESE 13 15 7 8 1021.9 1021.3 0.0
20/04:30pm 12.8 9.8 10.5 86 1.2 E 17 20 9 11 1021.3 1020.7 0.0
20/04:00pm 12.8 8.9 10.9 88 1.0 E 22 30 12 16 1020.8 1020.2 0.0
20/03:30pm 13.6 10.3 11.0 84 1.4 E 19 26 10 14 1021.1 1020.5 0.0
20/03:00pm 14.0 9.7 10.8 81 1.7 E 24 32 13 17 1021.0 1020.4 0.0
20/02:30pm 15.1 10.7 11.7 80 1.9 E 26 33 14 18 1020.9 1020.3 0.0
20/02:00pm 16.9 13.5 12.6 76 2.4 E 22 30 12 16 1020.5 1019.9 0.0
20/01:45pm 17.7 14.4 12.8 73 2.8 ENE 22 28 12 15 1020.2 1019.5 0.0
20/01:30pm 18.5 15.7 12.7 69 3.3 NE 19 28 10 15 1020.2 1019.5 0.0
20/01:00pm 20.1 18.3 14.5 70 3.3 NE 17 24 9 13 1020.2 1019.5 0.0
20/12:30pm 18.2 16.2 13.9 76 2.5 NE 17 22 9 12 1020.2 1019.5 0.0
20/12:04pm 18.4 16.5 14.1 76 2.5 NE 17 24 9 13 1020.5 1019.9 0.0
20/12:00pm 18.6 16.3 14.1 75 2.6 NE 19 26 10 14 1020.5 1019.9 0.0
20/11:30am 19.2 18.8 14.2 73 3.0 NNW 9 15 5 8 1020.8 1020.2 0.0
20/11:00am 18.7 18.6 14.0 74 2.8 N 7 11 4 6 1021.1 1020.5 0.0
20/10:30am 18.1 18.3 14.2 78 2.3 N 6 9 3 5 1021.4 1020.8 0.0
20/10:00am 17.2 17.4 14.1 82 1.8 WNW 6 7 3 4 1021.2 1020.6 0.0
20/09:30am 16.3 16.8 15.0 92 0.8 NW 6 9 3 5 1021.1 1020.5 0.0
20/09:00am 16.0 17.2 14.9 93 0.6 SSW 2 7 1 4 1020.9 1020.3 11.2
20/08:30am 15.6 16.0 15.4 99 0.1 E 7 11 4 6 1020.7 1020.1 11.2
20/08:00am 15.4 16.7 15.2 99 0.1 W 2 7 1 4 1020.9 1020.3 11.2
20/07:30am 15.1 15.0 14.9 99 0.1 W 9 9 5 5 1020.7 1020.1 11.2
20/07:00am 14.6 15.7 14.6 100 0.0 NE 2 9 1 5 1020.4 1019.8 11.2
20/06:30am 14.3 14.3 14.3 100 0.0 E 7 9 4 5 1020.3 1019.7 11.0
20/06:00am 14.3 15.2 14.1 99 0.1 ESE 2 6 1 3 1020.1 1019.4 11.0
20/05:30am 14.3 14.5 14.1 99 0.1 SE 6 7 3 4 1019.5 1018.9 11.0
20/05:00am 14.7 14.5 14.7 100 0.0 NE 9 11 5 6 1019.6 1019.0 11.0
20/04:30am 15.1 15.9 14.9 99 0.1 SW 4 6 2 3 1020.1 1019.4 11.0
20/04:00am 14.8 15.9 14.6 99 0.1 ENE 2 6 1 3 1020.2 1019.5 11.0
20/03:30am 14.8 14.6 14.6 99 0.1 E 9 11 5 6 1020.2 1019.5 11.0
20/03:00am 15.0 15.2 14.8 99 0.1 ESE 7 9 4 5 1020.2 1019.5 10.8
20/02:30am 15.2 15.5 14.9 98 0.2 NNW 7 9 4 5 1020.5 1019.9 10.4
20/02:00am 15.3 16.2 15.1 99 0.1 ENE 4 7 2 4 1020.5 1019.9 10.2
20/01:30am 15.5 15.8 15.0 97 0.3 W 7 11 4 6 1021.1 1020.5 10.0
20/01:00am 15.5 15.4 15.0 97 0.3 NW 9 13 5 7 1021.1 1020.5 9.8
20/12:30am 15.4 13.7 14.8 96 0.4 NNE 17 20 9 11 1021.0 1020.4 9.8
20/12:00am 15.3 14.0 14.7 96 0.4 N 15 17 8 9 1022.0 1021.4 9.6
 
Date/Time
EDT
Temp
°C
App
Temp
°C
Dew
Point
°C
Rel
Hum
%
Delta-T
°C
Wind Press
QNH
hPa
Press
MSL
hPa
Rain since
9am
mm
Dir  Spd
km/h
Gust
km/h
Spd
kts
Gust
kts
19/11:39pm 16.0 14.7 14.9 93 0.7 NW 15 24 8 13 1022.3 1021.7 9.0
19/11:30pm 16.4 16.0 16.1 98 0.2 W 13 20 7 11 1022.2 1021.6 8.6
19/11:15pm 17.0 16.5 16.8 99 0.1 WSW 15 22 8 12 1022.3 1021.7 7.4
19/11:00pm 17.3 18.4 17.1 99 0.1 W 7 9 4 5 1022.1 1021.5 6.0
19/10:30pm 17.1 18.3 16.9 99 0.1 N 6 6 3 3 1022.0 1021.4 6.0
19/10:00pm 17.1 18.1 16.9 99 0.1 NNE 7 9 4 5 1022.2 1021.6 5.8
19/09:54pm 17.1 18.1 16.9 99 0.1 N 7 9 4 5 1022.1 1021.5 5.6
19/09:30pm 17.4 18.2 17.2 99 0.1 NNE 9 13 5 7 1022.1 1021.5 5.4
19/09:07pm 17.5 18.3 17.3 99 0.1 NNW 9 13 5 7 1022.2 1021.6 4.6
19/09:00pm 17.5 18.3 17.3 99 0.1 NNW 9 11 5 6 1022.2 1021.6 4.2
19/08:30pm 17.6 18.1 17.4 99 0.1 NW 11 15 6 8 1022.0 1021.4 3.4
19/08:00pm 17.6 17.7 17.4 99 0.1 N 13 19 7 10 1021.8 1021.2 3.0
19/07:30pm 17.8 18.4 17.6 99 0.1 NNW 11 13 6 7 1021.5 1020.9 2.2
19/07:00pm 18.0 18.4 17.2 95 0.5 WNW 11 17 6 9 1021.5 1020.9 1.2
19/06:42pm 18.0 17.1 16.9 93 0.7 WNW 17 26 9 14 1021.2 1020.6 1.0
19/06:30pm 18.6 15.4 16.2 86 1.5 WNW 28 39 15 21 1021.3 1020.7 0.2
19/06:24pm 20.5 17.2 15.1 71 3.3 WNW 26 37 14 20 1021.1 1020.5 0.0
19/06:00pm 22.4 19.0 13.7 58 5.2 NNW 24 33 13 18 1020.5 1019.9 0.0
19/05:30pm 23.1 20.1 13.6 55 5.7 NNW 22 30 12 16 1020.5 1019.9 0.0
19/05:00pm 23.6 19.4 13.5 53 6.0 NW 28 37 15 20 1020.4 1019.8 0.0
19/04:30pm 24.7 19.7 13.3 49 6.8 NW 32 41 17 22 1020.4 1019.8 0.0
19/04:00pm 24.7 20.9 13.6 50 6.6 NW 26 37 14 20 1020.3 1019.7 0.0
19/03:30pm 24.9 21.2 13.8 50 6.7 NNW 26 35 14 19 1020.6 1020.0 0.0
19/03:00pm 24.7 20.2 13.9 51 6.5 NW 30 37 16 20 1021.1 1020.5 0.0
19/02:30pm 25.1 20.5 13.6 49 6.9 NW 30 39 16 21 1021.5 1020.9 0.0
19/02:00pm 24.3 19.7 13.5 51 6.4 WNW 30 43 16 23 1022.2 1021.6 0.0
19/01:30pm 23.9 20.1 13.7 53 6.1 W 26 32 14 17 1022.5 1021.9 0.0
19/01:00pm 24.1 18.9 13.3 51 6.4 NW 33 44 18 24 1022.8 1022.2 0.0
19/12:30pm 23.6 18.0 13.2 52 6.2 NW 35 48 19 26 1023.1 1022.5 0.0
19/12:00pm 23.6 18.8 12.9 51 6.3 NW 30 44 16 24 1023.3 1022.8 0.0
19/11:50am 24.4 20.2 13.6 51 6.5 NW 28 50 15 27 1023.4 1022.9 0.0
19/11:30am 23.5 19.2 13.1 52 6.2 NW 28 39 15 21 1023.9 1023.3 0.0
19/11:00am 22.8 16.5 12.4 52 6.0 NW 37 48 20 26 1024.2 1023.6 0.0
19/10:30am 22.7 17.3 12.3 52 6.1 NW 32 41 17 22 1024.4 1023.8 0.0
19/10:00am 21.9 18.0 12.2 54 5.6 NW 24 35 13 19 1024.6 1024.0 0.0
19/09:30am 20.5 18.9 11.7 57 5.0 NW 11 19 6 10 1024.8 1024.3 0.0
19/09:00am 17.8 17.1 11.4 66 3.6 W 6 7 3 4 1024.9 1024.4 0.0
19/08:30am 16.4 16.8 11.3 72 2.8 CALM 0 0 0 0 1025.0 1024.5 0.0

Latest Capital City Observations: Canberra | Sydney | Melbourne | Brisbane | Adelaide | Perth | Hobart | Darwin

Other Formats:

Comma delimited format used in spreadsheet applications
http://www.bom.gov.au/fwo/IDN60903/IDN60903.94926.axf

JavaScript Object Notation format (JSON) in row-major order
http://www.bom.gov.au/fwo/IDN60903/IDN60903.94926.json